AirNav   Phillips 66 Aviation Fuel
 
 873 users online  

VA99 Federhart-Ophelia Airport
Reedville, Virginia, USA

GOING TO REEDVILLE?


FAA INFORMATION EFFECTIVE 01 FEBRUARY 2018

Location

FAA Identifier: VA99
Lat/Long: 37-54-21.4630N / 076-17-25.8000W
37-54.357717N / 076-17.430000W
37.9059619 / -76.2905000
(estimated)
Elevation: 13 ft. / 4 m (estimated)
Variation: 10W (1985)
From city: 4 miles N of REEDVILLE, VA
Time zone: UTC -5 (UTC -4 during Daylight Saving Time)
Zip code: 22473

Airport Operations

Airport use: Private use. Permission required prior to landing
Activation date: 02/1972
Control tower: no
ARTCC: WASHINGTON CENTER
FSS: LEESBURG FLIGHT SERVICE STATION
Attendance: UNATNDD
Wind indicator: yes
Segmented circle: no

Airport Communications

WX AWOS-3 at TGI (15 nm E): 119.8 (757-891-2246)
WX AWOS-3 at W75 (20 nm S): 118.45 (804-758-8592)

Nearby radio navigation aids

VOR radial/distance  VOR name  Freq  Var
PXTr177/23.5PATUXENT VORTAC117.6010W
HCMr043/33.9HARCUM VORTAC108.8007W
CCVr347/36.3CAPE CHARLES VORTAC112.2010W

 
NDB name  Hdg/Dist  Freq  Var  ID
PATUXENT177/23.440010WNHK -. .... -.-
ACCOM322/30.833611WBDB -... -.. -...
CAMBRIDGE208/39.835510WCGE -.-. --. .

Airport Services

Airframe service: NONE
Powerplant service: NONE

Runway Information

Runway N/S

Dimensions: 2200 x 80 ft. / 671 x 24 m
Surface: turf, in good condition
RUNWAY N  RUNWAY S
Traffic pattern: leftleft
Obstructions: 60 ft. trees, 150 ft. from runway
AND PLINE
70 ft. trees, 450 ft. from runway

Airport Ownership and Management from official FAA records

Ownership: Privately-owned
Owner: JOHN A. FEDERHART
BOX 247
OPHELIA, VA 22530-0247
Phone 804-453-3064
804-453-3064.
Manager: JOHN A. FEDERHART
BOX 247, 375 AIRSTRIP LANE
OPHELIA, VA 22530-0247
Phone 541-281-3358

Airport Operational Statistics

Aircraft based on the field: 3
Single engine airplanes: 3
    

Additional Remarks

DESIGNATED VA99.

Instrument Procedures

There are no published instrument procedures at VA99.

Some nearby airports with instrument procedures:

KTGI - Tangier Island Airport (15 nm E)
W75 - Hummel Field Airport (20 nm S)
W41 - Crisfield-Somerset County Airport (23 nm E)
KNHK - Patuxent River Naval Air Station (Trapnell Field) (24 nm N)
2W6 - St Mary's County Regional Airport (27 nm NW)
 
Loc | Ops | Rwys | IFR | FBO | Links
Com | Nav | Svcs | Stats | Notes

AirNav Hotels Sweepstakes
 
Area around VA99 (Federhart-Ophelia Airport)
 
Road maps at: MapQuest Bing Google
 
Aerial photo
WARNING: Photo may not be current or correct
Aerial photo of VA99 (Federhart-Ophelia Airport)
Photo taken 27-Mar-2006

Do you have a better or more recent aerial photo of Federhart-Ophelia Airport that you would like to share? If so, please send us your photo.

 
Sectional chart

 
Airport distance calculator
Flying to Federhart-Ophelia Airport? Find the distance to fly.

From to VA99

Sunrise and sunset
Times for 25-Feb-2018
 Local
(UTC-5)
 Zulu
(UTC)
Morning civil twilight06:1711:17
Sunrise06:4311:43
Sunset17:5322:53
Evening civil twilight18:2023:20

Current date and time
Zulu (UTC)  25-Feb-2018 14:18:58
Local (UTC-5)  25-Feb-2018 09:18:58
 
METAR
KTGI 
15nm E 
251358Z AUTO 18011KT 7SM BKN001 BKN110 11/11 A2996 RMK AO1
KNUI 
16nm NW 
251400Z AUTO 00000KT 1SM BR OVC002 11/11 A2995 RMK AO2 T01110111
KW75 
20nm S 
251355Z AUTO 20007KT 10SM CLR 16/16 A2997 RMK AO1 T01630163
KNHK 
22nm N 
251352Z 11003KT 1/16SM FG VV001 09/09 A2996 RMK AO2 SLP145 T00890089
K2W6 
27nm NW 
251357Z AUTO 00000KT 1/4SM OVC002 10/09 A2998 RMK AO1
KXSA 
29nm W 
251355Z AUTO 00000KT 2SM BR BKN002 13/13 A2997 RMK AO2 T01270127
TAF
KNHK 
22nm N 
2507/2607 VRB06KT 2400 BR OVC005 QNH3005INS TEMPO 2507/2513 0800 FG VV003 BECMG 2514/2516 22013KT 6000 SHRA BKN015 BKN060 QNH3001INS TEMPO 2516/2519 3200 SHRA BR BKN005 BECMG 2519/2521 24012G18KT 9999 BKN020 OVC100 QNH3000INS BECMG 2600/2602 34008KT 9999 SCT020 BKN035 OVC160 QNH2999INS T11/2507Z T19/2518Z FN00182
NOTAMs
Click for the latest NOTAMs
NOTAMs are issued by the DoD/FAA and will open in a separate window not controlled by AirNav.

 

 
 

Would you like to see your business listed on this page?

 If your business provides an interesting product or service to pilots, flight crews, aircraft, or users of the Federhart-Ophelia Airport, you should consider listing it here.  To start the listing process, click on the button below
 
Add a business
 

Other Pages about Federhart-Ophelia Airport

Update a link
 
Copyright © AirNav, LLC. All rights reserved. Privacy Policy  Contact